createdAt,value
2019-05-12T00:01:54.744Z,2.73
2019-05-12T00:04:20.422Z,3.00
2019-05-12T00:06:47.859Z,2.80
2019-05-12T00:09:13.483Z,2.93
2019-05-12T00:11:39.087Z,2.77
2019-05-12T00:14:05.709Z,2.60
2019-05-12T00:16:31.312Z,2.80
2019-05-12T00:18:58.603Z,3.67
2019-05-12T00:21:24.296Z,2.93
2019-05-12T00:24:09.642Z,3.10
2019-05-12T00:26:35.221Z,2.93
2019-05-12T00:31:24.904Z,3.80
2019-05-12T00:33:51.555Z,3.30
2019-05-12T00:36:18.583Z,3.10
2019-05-12T00:38:44.563Z,3.90
2019-05-12T00:41:10.102Z,3.07
2019-05-12T00:43:35.689Z,2.90
2019-05-12T00:46:01.630Z,3.37
2019-05-12T00:48:28.399Z,3.70
2019-05-12T00:50:54.295Z,3.87
2019-05-12T00:53:19.907Z,3.17
2019-05-12T00:55:47.542Z,3.40
2019-05-12T00:58:12.855Z,3.30
2019-05-12T01:00:40.611Z,3.33
2019-05-12T01:03:08.400Z,3.00
2019-05-12T01:05:33.477Z,3.80
2019-05-12T01:07:59.080Z,3.60
2019-05-12T01:10:25.010Z,3.50
2019-05-12T01:12:50.615Z,3.33
2019-05-12T01:15:17.744Z,3.53
2019-05-12T01:17:43.617Z,4.20
2019-05-12T01:20:09.274Z,3.60
2019-05-12T01:22:38.226Z,4.90
2019-05-12T01:25:03.783Z,3.67
2019-05-12T01:27:29.436Z,3.60
2019-05-12T01:29:55.043Z,3.50
2019-05-12T01:32:28.812Z,3.63
2019-05-12T01:34:54.582Z,3.70
2019-05-12T01:37:23.145Z,3.57
2019-05-12T01:39:51.607Z,3.20
2019-05-12T01:42:18.043Z,3.40
2019-05-12T01:44:44.787Z,3.63
2019-05-12T01:47:10.357Z,2.97
2019-05-12T01:49:38.112Z,3.00
2019-05-12T01:52:03.430Z,3.60
2019-05-12T01:54:29.073Z,3.60
2019-05-12T01:56:54.649Z,3.43
2019-05-12T01:59:20.188Z,3.80
2019-05-12T02:01:45.757Z,3.57
2019-05-12T02:04:11.331Z,4.00
2019-05-12T02:06:38.627Z,3.30
2019-05-12T02:09:08.055Z,3.70
2019-05-12T02:11:33.745Z,3.20
2019-05-12T02:14:03.104Z,3.57
2019-05-12T02:16:28.662Z,3.50
2019-05-12T02:18:54.268Z,4.10
2019-05-12T02:21:19.878Z,3.70
2019-05-12T02:23:47.682Z,3.77
2019-05-12T02:26:12.937Z,3.03
2019-05-12T02:28:39.481Z,3.07
2019-05-12T02:31:05.255Z,3.30
2019-05-12T02:33:31.115Z,3.20
2019-05-12T02:35:56.659Z,2.80
2019-05-12T02:38:24.979Z,3.50
2019-05-12T02:40:49.697Z,3.57
2019-05-12T02:43:15.648Z,3.00
2019-05-12T02:45:44.510Z,2.90
2019-05-12T02:48:08.781Z,3.40
2019-05-12T02:50:35.875Z,2.97
2019-05-12T02:53:04.891Z,2.70
2019-05-12T02:55:34.468Z,3.90
2019-05-12T02:57:59.554Z,3.10
2019-05-12T03:00:27.685Z,3.07
2019-05-12T03:02:55.145Z,3.43
2019-05-12T03:05:20.784Z,3.70
2019-05-12T03:07:48.287Z,3.20
2019-05-12T03:10:14.731Z,3.07
2019-05-12T03:12:40.416Z,3.90
2019-05-12T03:15:06.094Z,3.50
2019-05-12T03:17:35.200Z,5.63
2019-05-12T03:19:59.233Z,3.20
2019-05-12T03:22:25.401Z,3.80
2019-05-12T03:25:06.540Z,2.90
2019-05-12T03:27:19.649Z,2.50
2019-05-12T03:29:45.233Z,2.93
2019-05-12T03:32:17.331Z,3.20
2019-05-12T03:34:40.038Z,2.50
2019-05-12T03:37:07.618Z,2.80
2019-05-12T03:39:34.379Z,2.80
2019-05-12T03:42:00.176Z,2.90
2019-05-12T03:44:25.712Z,2.40
2019-05-12T03:46:54.205Z,3.03
2019-05-12T03:49:18.713Z,3.73
2019-05-12T03:51:45.671Z,2.53
2019-05-12T03:54:15.005Z,3.27
2019-05-12T03:56:39.071Z,2.90
2019-05-12T03:59:05.139Z,2.47
2019-05-12T04:01:31.039Z,3.47
2019-05-12T04:03:56.611Z,2.67
2019-05-12T04:06:24.524Z,2.50
2019-05-12T04:08:50.100Z,2.90
2019-05-12T04:11:15.742Z,3.00
2019-05-12T04:13:44.936Z,3.00
2019-05-12T04:16:09.030Z,2.43
2019-05-12T04:18:35.105Z,2.90
2019-05-12T04:21:00.916Z,3.00
2019-05-12T04:23:26.556Z,2.33
2019-05-12T04:26:04.110Z,2.37
2019-05-12T04:28:19.672Z,2.83
2019-05-12T04:30:45.219Z,2.90
2019-05-12T04:33:10.801Z,2.73
2019-05-12T04:35:36.567Z,2.80
2019-05-12T04:38:04.432Z,2.80
2019-05-12T04:40:29.906Z,2.60
2019-05-12T04:42:55.686Z,2.70
2019-05-12T04:45:21.361Z,2.20
2019-05-12T04:47:47.010Z,3.10
2019-05-12T04:50:15.598Z,2.07
2019-05-12T04:52:40.163Z,9.20
2019-05-12T04:55:05.732Z,10.30
2019-05-12T04:57:34.323Z,1.90
2019-05-12T04:59:58.758Z,2.17
2019-05-12T05:02:25.260Z,2.07
2019-05-12T05:04:54.501Z,2.20
2019-05-12T05:07:18.914Z,2.23
2019-05-12T05:09:44.698Z,2.37
2019-05-12T05:12:10.237Z,2.17
2019-05-12T05:14:35.903Z,2.30
2019-05-12T05:17:05.818Z,2.33
2019-05-12T05:19:33.746Z,2.23
2019-05-12T05:21:59.536Z,2.00
2019-05-12T05:24:25.143Z,2.10
2019-05-12T05:26:50.978Z,2.30
2019-05-12T05:29:16.550Z,1.93
2019-05-12T05:31:43.986Z,2.67
2019-05-12T05:34:10.228Z,2.40
2019-05-12T05:36:36.993Z,2.77
2019-05-12T05:39:05.028Z,2.10
2019-05-12T05:41:30.610Z,2.23
2019-05-12T05:43:58.433Z,2.37
2019-05-12T05:46:24.147Z,2.20
2019-05-12T05:48:49.963Z,2.03
2019-05-12T05:51:15.508Z,2.27
2019-05-12T05:53:41.071Z,2.40
2019-05-12T05:56:06.615Z,2.20
2019-05-12T05:58:33.956Z,2.73
2019-05-12T06:01:03.786Z,2.13
2019-05-12T06:03:27.959Z,2.27
2019-05-12T06:05:53.859Z,2.27
2019-05-12T06:08:20.835Z,2.60
2019-05-12T06:10:46.758Z,2.50
2019-05-12T06:13:14.278Z,2.60
2019-05-12T06:15:40.894Z,2.57
2019-05-12T06:18:07.218Z,2.73
2019-05-12T06:20:37.560Z,2.03
2019-05-12T06:23:00.455Z,2.25
2019-05-12T06:25:26.681Z,2.57
2019-05-12T06:27:59.985Z,2.80
2019-05-12T06:30:19.843Z,2.60
2019-05-12T06:32:50.202Z,2.60
2019-05-12T06:35:15.085Z,6.83
2019-05-12T06:37:41.042Z,6.00
2019-05-12T06:40:07.007Z,3.30
2019-05-12T06:42:34.156Z,4.47
2019-05-12T06:45:00.049Z,4.07
2019-05-12T06:47:25.621Z,4.77
2019-05-12T06:49:54.935Z,7.20
2019-05-12T06:52:18.734Z,4.40
2019-05-12T06:54:51.289Z,2.80
2019-05-12T06:57:23.409Z,2.60
2019-05-12T06:59:41.870Z,5.17
2019-05-12T07:02:06.837Z,5.93
2019-05-12T07:04:33.899Z,4.00
2019-05-12T07:07:00.693Z,2.50
2019-05-12T07:09:28.367Z,2.73
2019-05-12T07:12:02.823Z,2.80
2019-05-12T07:14:24.894Z,3.17
2019-05-12T07:16:55.035Z,2.77
2019-05-12T07:19:22.623Z,2.40
2019-05-12T07:21:50.854Z,2.50
2019-05-12T07:24:14.558Z,2.20
2019-05-12T07:26:40.099Z,2.87
2019-05-12T07:29:05.703Z,2.50
2019-05-12T07:31:33.370Z,2.40
2019-05-12T07:34:05.332Z,2.37
2019-05-12T07:36:29.918Z,2.10
2019-05-12T07:39:04.140Z,2.70
2019-05-12T07:41:23.845Z,2.57
2019-05-12T07:43:50.435Z,2.43
2019-05-12T07:46:16.955Z,2.50
2019-05-12T07:48:46.600Z,2.27
2019-05-12T07:51:13.634Z,2.77
2019-05-12T07:53:46.841Z,2.37
2019-05-12T07:56:19.645Z,2.20
2019-05-12T07:58:47.519Z,2.13
2019-05-12T08:01:14.532Z,2.30
2019-05-12T08:03:40.329Z,2.77
2019-05-12T08:06:08.248Z,2.07
2019-05-12T08:08:50.295Z,2.20
2019-05-12T08:11:28.787Z,2.30
2019-05-12T08:13:56.178Z,1.90
2019-05-12T08:16:25.672Z,2.17
2019-05-12T08:18:53.470Z,2.30
2019-05-12T08:21:19.369Z,2.27
2019-05-12T08:23:45.062Z,2.23
2019-05-12T08:26:16.250Z,2.23
2019-05-12T08:28:40.317Z,2.67
2019-05-12T08:31:05.828Z,2.73
2019-05-12T08:33:31.413Z,2.43
2019-05-12T08:35:56.964Z,2.10
2019-05-12T08:38:24.244Z,4.50
2019-05-12T08:40:51.280Z,2.73
2019-05-12T08:43:17.504Z,1.93
2019-05-12T08:45:44.347Z,2.40
2019-05-12T08:48:16.991Z,2.37
2019-05-12T08:50:38.945Z,2.13
2019-05-12T08:53:04.870Z,2.70
2019-05-12T08:55:31.476Z,2.70
2019-05-12T08:57:58.005Z,2.40
2019-05-12T09:00:31.318Z,2.60
2019-05-12T09:02:56.911Z,2.13
2019-05-12T09:05:28.049Z,2.60
2019-05-12T09:07:54.075Z,2.50
2019-05-12T09:10:20.141Z,2.40
2019-05-12T09:12:45.730Z,3.20
2019-05-12T09:15:13.606Z,2.07
2019-05-12T09:17:51.503Z,2.33
2019-05-12T09:20:08.601Z,2.30
2019-05-12T09:22:34.499Z,2.30
2019-05-12T09:25:06.140Z,1.97
2019-05-12T09:27:27.783Z,2.03
2019-05-12T09:29:59.151Z,2.40
2019-05-12T09:32:23.551Z,1.93
2019-05-12T09:34:52.886Z,2.27
2019-05-12T09:37:17.944Z,2.40
2019-05-12T09:39:47.312Z,2.03
2019-05-12T09:42:19.277Z,2.47
2019-05-12T09:44:43.914Z,1.87
2019-05-12T09:47:22.001Z,1.90
2019-05-12T09:49:39.640Z,1.87
2019-05-12T09:52:05.783Z,2.13
2019-05-12T09:54:35.431Z,5.40
2019-05-12T09:56:59.784Z,1.93
2019-05-12T09:59:26.059Z,1.87
2019-05-12T10:01:54.069Z,1.90
2019-05-12T10:04:19.778Z,1.90
2019-05-12T10:06:45.590Z,2.20
2019-05-12T10:09:15.676Z,2.50
2019-05-12T10:11:39.044Z,2.27
2019-05-12T10:14:06.463Z,2.17
2019-05-12T10:16:33.439Z,2.10
2019-05-12T10:18:59.649Z,2.13
2019-05-12T10:21:25.188Z,3.40
2019-05-12T10:24:00.194Z,2.50
2019-05-12T10:26:18.675Z,2.30
2019-05-12T10:28:51.949Z,2.70
2019-05-12T10:31:13.878Z,2.60
2019-05-12T10:33:39.546Z,2.90
2019-05-12T10:36:08.498Z,2.60
2019-05-12T10:38:34.396Z,1.63
2019-05-12T10:41:00.200Z,3.37
2019-05-12T10:43:25.735Z,2.23
2019-05-12T10:45:53.771Z,2.37
2019-05-12T10:48:19.818Z,2.80
2019-05-12T10:50:45.388Z,2.83
2019-05-12T10:53:16.170Z,2.73
2019-05-12T10:55:38.701Z,3.00
2019-05-12T10:58:07.127Z,3.27
2019-05-12T11:00:33.838Z,2.13
2019-05-12T11:03:01.603Z,2.93
2019-05-12T11:05:27.010Z,2.60
2019-05-12T11:07:53.986Z,2.63
2019-05-12T11:10:20.295Z,2.73
2019-05-12T11:12:46.278Z,2.87
2019-05-12T11:15:13.590Z,2.97
2019-05-12T11:17:53.622Z,2.53
2019-05-12T11:20:19.232Z,2.73
2019-05-12T11:22:44.903Z,5.20
2019-05-12T11:25:10.621Z,2.90
2019-05-12T11:27:36.303Z,2.37
2019-05-12T11:30:04.339Z,3.00
2019-05-12T11:32:36.398Z,2.20
2019-05-12T11:34:57.663Z,2.97
2019-05-12T11:37:23.475Z,2.70
2019-05-12T11:39:49.109Z,2.33
2019-05-12T11:42:14.760Z,2.87
2019-05-12T11:44:40.465Z,2.67
2019-05-12T11:47:06.084Z,2.77
2019-05-12T11:49:33.469Z,3.13
2019-05-12T11:52:00.961Z,2.30
2019-05-12T11:54:28.059Z,2.90
2019-05-12T11:56:53.888Z,2.43
2019-05-12T11:59:19.513Z,3.00
2019-05-12T12:01:49.763Z,3.90
2019-05-12T12:04:14.362Z,4.90
2019-05-12T12:06:40.121Z,2.67
2019-05-12T12:09:09.170Z,2.50
2019-05-12T12:11:34.278Z,2.40
2019-05-12T12:14:05.119Z,2.20
2019-05-12T12:16:28.375Z,2.90
2019-05-12T12:19:02.359Z,2.37
2019-05-12T12:21:23.704Z,2.87
2019-05-12T12:23:50.237Z,3.40
2019-05-12T12:26:26.187Z,2.53
2019-05-12T12:28:51.106Z,2.20
2019-05-12T12:31:16.665Z,2.03
2019-05-12T12:33:46.971Z,2.73
2019-05-12T12:36:09.842Z,3.50
2019-05-12T12:38:35.380Z,3.80
2019-05-12T12:41:00.959Z,2.47
2019-05-12T12:43:26.514Z,2.30
2019-05-12T12:45:59.667Z,2.60
2019-05-12T12:48:29.564Z,2.47
2019-05-12T12:50:53.432Z,2.47
2019-05-12T12:53:19.205Z,2.87
2019-05-12T12:55:45.223Z,2.77
2019-05-12T12:58:10.969Z,2.50
2019-05-12T13:00:46.856Z,2.70
2019-05-12T13:03:04.183Z,2.00
2019-05-12T13:05:29.824Z,2.20
2019-05-12T13:07:55.366Z,2.97
2019-05-12T13:10:21.005Z,2.40
2019-05-12T13:12:50.358Z,3.00
2019-05-12T13:15:14.774Z,3.10
2019-05-12T13:17:41.898Z,2.70
2019-05-12T13:20:08.485Z,2.57
2019-05-12T13:22:34.022Z,3.07
2019-05-12T13:25:04.423Z,3.60
2019-05-12T13:27:29.095Z,2.67
2019-05-12T13:29:54.744Z,2.50
2019-05-12T13:32:25.957Z,2.90
2019-05-12T13:34:47.785Z,3.10
2019-05-12T13:37:15.510Z,2.60
2019-05-12T13:39:40.895Z,2.53
2019-05-12T13:42:06.515Z,2.70
2019-05-12T13:44:38.788Z,2.83
2019-05-12T13:46:59.725Z,3.03
2019-05-12T13:49:29.861Z,3.50
2019-05-12T13:51:53.819Z,2.20
2019-05-12T13:54:20.113Z,2.50
2019-05-12T13:56:47.173Z,1.90
2019-05-12T13:59:20.501Z,4.33
2019-05-12T14:01:45.161Z,3.30
2019-05-12T14:04:08.924Z,2.67
2019-05-12T14:06:37.844Z,3.03
2019-05-12T14:09:05.583Z,3.00
2019-05-12T14:11:34.217Z,2.70
2019-05-12T14:13:58.896Z,2.60
2019-05-12T14:16:25.334Z,1.93
2019-05-12T14:18:56.901Z,2.20
2019-05-12T14:21:20.433Z,2.83
2019-05-12T14:23:45.970Z,3.73
2019-05-12T14:26:13.518Z,2.57
2019-05-12T14:28:39.496Z,3.00
2019-05-12T14:31:06.627Z,3.40
2019-05-12T14:33:35.950Z,2.87
2019-05-12T14:35:59.691Z,2.13
2019-05-12T14:38:29.684Z,2.67
2019-05-12T14:40:53.688Z,2.27
2019-05-12T14:43:21.911Z,2.77
2019-05-12T14:45:48.384Z,2.70
2019-05-12T14:48:14.084Z,2.53
2019-05-12T14:50:39.632Z,2.27
2019-05-12T14:53:05.324Z,2.43
2019-05-12T14:55:30.987Z,2.67
2019-05-12T14:57:56.617Z,2.27
2019-05-12T15:00:24.171Z,2.70
2019-05-12T15:02:50.076Z,2.80
2019-05-12T15:05:15.810Z,2.83
2019-05-12T15:07:50.674Z,3.30
2019-05-12T15:10:09.355Z,3.30
2019-05-12T15:12:34.891Z,2.90
2019-05-12T15:15:00.431Z,2.80
2019-05-12T15:17:26.012Z,5.87
2019-05-12T15:19:51.784Z,3.80
2019-05-12T15:22:17.398Z,3.83
2019-05-12T15:24:44.275Z,3.90
2019-05-12T15:27:13.684Z,3.83
2019-05-12T15:29:39.345Z,4.00
2019-05-12T15:32:05.456Z,5.13
2019-05-12T15:34:33.810Z,3.40
2019-05-12T15:37:00.362Z,3.10
2019-05-12T15:39:26.110Z,2.60
2019-05-12T15:41:56.427Z,2.97
2019-05-12T15:44:24.783Z,3.23
2019-05-12T15:46:46.833Z,6.70
2019-05-12T15:49:12.816Z,5.90
2019-05-12T15:51:39.093Z,5.40
2019-05-12T15:54:11.305Z,3.50
2019-05-12T15:56:33.691Z,3.53
2019-05-12T15:59:00.862Z,3.33
2019-05-12T16:01:27.668Z,4.67
2019-05-12T16:03:54.331Z,4.00
2019-05-12T16:06:20.247Z,5.10
2019-05-12T16:08:45.829Z,4.90
2019-05-12T16:11:13.819Z,4.63
2019-05-12T16:13:39.009Z,3.10
2019-05-12T16:16:06.680Z,3.33
2019-05-12T16:18:34.048Z,3.53
2019-05-12T16:21:05.106Z,5.43
2019-05-12T16:23:30.104Z,4.00
2019-05-12T16:25:54.563Z,4.10
2019-05-12T16:28:23.589Z,4.10
2019-05-12T16:30:47.595Z,4.23
2019-05-12T16:33:20.549Z,6.50
2019-05-12T16:35:41.018Z,5.40
2019-05-12T16:38:17.214Z,4.70
2019-05-12T16:40:34.512Z,5.40
2019-05-12T16:43:03.814Z,6.60
2019-05-12T16:45:29.490Z,4.97
2019-05-12T16:47:59.292Z,3.47
2019-05-12T16:50:25.375Z,4.27
2019-05-12T16:52:50.309Z,4.83
2019-05-12T16:55:15.900Z,4.80
2019-05-12T16:57:50.539Z,5.43
2019-05-12T17:00:09.015Z,4.60
2019-05-12T17:02:41.314Z,5.77
2019-05-12T17:05:06.616Z,5.20
2019-05-12T17:07:31.311Z,3.20
2019-05-12T17:09:56.939Z,2.90
2019-05-12T17:12:23.842Z,6.90
2019-05-12T17:14:50.289Z,8.20
2019-05-12T17:17:20.826Z,8.23
2019-05-12T17:19:44.782Z,6.10
2019-05-12T17:22:13.280Z,7.90
2019-05-12T17:24:38.706Z,5.73
2019-05-12T17:27:09.102Z,4.80
2019-05-12T17:29:33.434Z,4.10
2019-05-12T17:31:59.124Z,2.67
2019-05-12T17:34:25.885Z,5.37
2019-05-12T17:36:56.032Z,5.13
2019-05-12T17:39:20.305Z,5.77
2019-05-12T17:41:45.929Z,5.10
2019-05-12T17:44:13.603Z,4.20
2019-05-12T17:46:39.736Z,3.73
2019-05-12T17:49:05.420Z,4.00
2019-05-12T17:51:31.189Z,5.00
2019-05-12T17:53:59.623Z,4.57
2019-05-12T17:56:33.208Z,3.23
2019-05-12T17:58:52.967Z,3.03
2019-05-12T18:01:23.125Z,3.83
2019-05-12T18:03:50.490Z,4.40
2019-05-12T18:06:20.489Z,3.30
2019-05-12T18:08:44.838Z,3.57
2019-05-12T18:11:15.779Z,4.30
2019-05-12T18:13:40.070Z,4.53
2019-05-12T18:16:11.080Z,3.90
2019-05-12T18:18:37.863Z,4.30
2019-05-12T18:21:03.342Z,3.50
2019-05-12T18:23:30.311Z,3.10
2019-05-12T18:25:55.692Z,3.83
2019-05-12T18:28:21.757Z,3.47
2019-05-12T18:30:48.720Z,4.83
2019-05-12T18:33:28.427Z,4.83
2019-05-12T18:35:43.921Z,4.00
2019-05-12T18:38:20.959Z,5.60
2019-05-12T18:40:37.049Z,4.80
2019-05-12T18:43:06.426Z,5.60
2019-05-12T18:45:34.112Z,5.03
2019-05-12T18:48:01.217Z,4.47
2019-05-12T18:50:31.325Z,6.70
2019-05-12T18:52:56.361Z,4.20
2019-05-12T18:55:23.534Z,4.80
2019-05-12T18:57:50.091Z,5.80
2019-05-12T19:00:18.850Z,4.90
2019-05-12T19:02:44.509Z,4.27
2019-05-12T19:05:21.316Z,7.13
2019-05-12T19:07:40.492Z,4.80
2019-05-12T19:10:06.417Z,7.97
2019-05-12T19:12:34.827Z,5.93
2019-05-12T19:14:59.697Z,9.50
2019-05-12T19:17:25.264Z,8.17
2019-05-12T19:19:53.988Z,8.20
2019-05-12T19:22:18.670Z,5.47
2019-05-12T19:24:44.503Z,5.60
2019-05-12T19:27:15.870Z,6.23
2019-05-12T19:29:45.523Z,6.97
2019-05-12T19:32:05.444Z,7.27
2019-05-12T19:34:31.919Z,6.10
2019-05-12T19:36:58.697Z,7.20
2019-05-12T19:39:25.430Z,7.70
2019-05-12T19:41:51.179Z,6.97
2019-05-12T19:44:19.862Z,8.47
2019-05-12T19:46:46.093Z,8.97
2019-05-12T19:49:12.028Z,8.37
2019-05-12T19:51:37.582Z,7.33
2019-05-12T19:54:03.576Z,6.73
2019-05-12T19:56:34.240Z,5.60
2019-05-12T19:58:56.948Z,3.77
2019-05-12T20:01:23.914Z,3.53
2019-05-12T20:03:55.190Z,3.03
2019-05-12T20:06:18.635Z,3.30
2019-05-12T20:08:44.186Z,3.67
2019-05-12T20:11:09.749Z,3.87
2019-05-12T20:13:39.906Z,6.07
2019-05-12T20:16:02.746Z,4.90
2019-05-12T20:18:28.295Z,3.13
2019-05-12T20:20:54.429Z,4.30
2019-05-12T20:23:20.016Z,3.73
2019-05-12T20:25:45.579Z,2.90
2019-05-12T20:28:12.047Z,3.80
2019-05-12T20:30:38.591Z,3.30
2019-05-12T20:33:06.267Z,4.53
2019-05-12T20:35:33.792Z,3.67
2019-05-12T20:37:59.899Z,3.60
2019-05-12T20:40:25.475Z,3.40
2019-05-12T20:43:07.318Z,2.70
2019-05-12T20:45:18.895Z,4.30
2019-05-12T20:47:47.714Z,2.80
2019-05-12T20:50:14.674Z,3.87
2019-05-12T20:52:48.733Z,5.03
2019-05-12T20:55:08.159Z,4.43
2019-05-12T20:57:34.535Z,3.60
2019-05-12T21:00:04.686Z,4.23
2019-05-12T21:02:27.895Z,4.07
2019-05-12T21:05:00.439Z,3.40
2019-05-12T21:07:22.273Z,4.70
2019-05-12T21:09:48.729Z,3.77
2019-05-12T21:12:14.252Z,4.33
2019-05-12T21:14:44.627Z,3.53
2019-05-12T21:17:09.452Z,5.63
2019-05-12T21:19:38.741Z,4.60
2019-05-12T21:22:03.950Z,3.90
2019-05-12T21:24:35.932Z,4.40
2019-05-12T21:26:57.652Z,6.50
2019-05-12T21:29:25.635Z,4.27
2019-05-12T21:31:50.723Z,3.97
2019-05-12T21:34:21.087Z,5.10
2019-05-12T21:36:44.909Z,5.33
2019-05-12T21:39:19.482Z,6.03
2019-05-12T21:41:50.497Z,5.60
2019-05-12T21:44:14.156Z,5.53
2019-05-12T21:46:47.345Z,4.90
2019-05-12T21:49:10.284Z,4.87
2019-05-12T21:51:34.703Z,3.77
2019-05-12T21:54:00.262Z,4.77
2019-05-12T21:56:25.796Z,3.40
2019-05-12T21:58:56.472Z,4.37
2019-05-12T22:01:23.780Z,6.50
2019-05-12T22:03:57.883Z,4.90
2019-05-12T22:06:21.875Z,5.90
2019-05-12T22:08:46.685Z,3.30
2019-05-12T22:11:12.669Z,3.90
2019-05-12T22:13:38.755Z,4.27
2019-05-12T22:16:04.538Z,3.30
2019-05-12T22:18:30.066Z,4.17
2019-05-12T22:21:06.804Z,3.33
2019-05-12T22:23:33.165Z,3.93
2019-05-12T22:26:00.338Z,3.80
2019-05-12T22:28:26.175Z,3.30
2019-05-12T22:30:54.012Z,4.07
2019-05-12T22:33:19.206Z,3.03
2019-05-12T22:35:44.859Z,5.97
2019-05-12T22:38:19.641Z,4.20
2019-05-12T22:40:37.881Z,6.10
2019-05-12T22:43:04.498Z,4.83
2019-05-12T22:45:36.187Z,5.03
2019-05-12T22:47:59.248Z,4.60
2019-05-12T22:50:27.217Z,5.50
2019-05-12T22:52:53.363Z,4.80
2019-05-12T22:55:21.122Z,5.30
2019-05-12T22:57:47.382Z,5.37
2019-05-12T23:00:19.165Z,6.20
2019-05-12T23:02:45.982Z,3.80
2019-05-12T23:05:18.967Z,3.47
2019-05-12T23:07:39.797Z,4.70
2019-05-12T23:10:09.350Z,4.40
2019-05-12T23:12:34.334Z,3.03
2019-05-12T23:15:07.137Z,3.93
2019-05-12T23:17:30.251Z,3.67
2019-05-12T23:19:56.369Z,3.93
2019-05-12T23:22:23.609Z,4.97
2019-05-12T23:24:49.434Z,4.00
2019-05-12T23:27:18.967Z,3.57
2019-05-12T23:29:44.404Z,3.37
2019-05-12T23:32:12.119Z,4.80
2019-05-12T23:34:37.658Z,3.60
2019-05-12T23:37:03.801Z,3.73
2019-05-12T23:39:32.468Z,3.90
2019-05-12T23:41:57.111Z,5.30
2019-05-12T23:44:23.938Z,4.10
2019-05-12T23:46:49.849Z,3.70
2019-05-12T23:49:15.396Z,3.47
2019-05-12T23:51:40.950Z,5.07
2019-05-12T23:54:06.555Z,3.40
2019-05-12T23:56:33.740Z,4.27
2019-05-12T23:58:59.575Z,3.70
